Delta Virtual Airport Information Service

Hilo International Airport

ICAO: PHTO Country: United States
Latitude: 19.7203 Longitude: -155.048
Latest Arrival : DAC123 (PHNL-PHTO) Latest Departure : DAC7566 (PHTO-NSFA)


WX CaptureLIVE
Data provided by noaa.gov | Fetched at 10:54:24

METAR : PHTO 281453Z AUTO 26003KT 10SM SCT028 SCT050 BKN060 23/19 A3012

TAF : PHTO 281131Z 2812/2912 24004KT P6SM VCSH SCT025 BKN040 FM282000 04010KT P6SM VCSH SCT020 BKN040 FM290500 VRB05KT P6SM VCSH SCT025 BKN040


Runway Data for PHTO
Data provided by openaviationdata.com

Runway ID Mag Var Hdg Length Elevation Surface ILS Freq ILS Id ILS Slope
3 10 30° 5610 ft 38 ft Asphalt -- -- --
8 10 79° 9796 ft 38 ft Asphalt -- -- --
21 10 210° 5610 ft 38 ft Asphalt -- -- --
26 10 259° 9796 ft 38 ft Asphalt 110.7 IITO 2

Hilo International Airport, United States
Use only for reference purposes



Not for navigational purposes.